createdAt,value
2023-01-01T00:01:27.168Z,4.40
2023-01-01T00:03:57.095Z,4.10
2023-01-01T00:06:26.004Z,4.50
2023-01-01T00:09:13.291Z,4.20
2023-01-01T00:11:40.565Z,4.10
2023-01-01T00:14:12.444Z,4.10
2023-01-01T00:16:40.349Z,4.10
2023-01-01T00:19:07.608Z,4.00
2023-01-01T00:21:34.930Z,4.00
2023-01-01T00:24:02.909Z,4.00
2023-01-01T00:26:34.902Z,3.90
2023-01-01T00:29:04.090Z,3.70
2023-01-01T00:31:31.927Z,3.90
2023-01-01T00:33:59.590Z,3.70
2023-01-01T00:36:28.546Z,3.30
2023-01-01T00:38:56.388Z,3.50
2023-01-01T00:41:24.096Z,3.70
2023-01-01T00:43:51.990Z,3.30
2023-01-01T00:46:19.364Z,3.30
2023-01-01T00:48:46.618Z,3.60
2023-01-01T00:51:14.061Z,3.20
2023-01-01T00:53:41.210Z,3.30
2023-01-01T00:56:08.478Z,3.30
2023-01-01T00:58:35.712Z,3.30
2023-01-01T01:01:03.002Z,3.30
2023-01-01T01:03:30.743Z,3.30
2023-01-01T01:06:04.075Z,3.50
2023-01-01T01:08:34.564Z,3.20
2023-01-01T01:11:14.489Z,3.40
2023-01-01T01:13:46.100Z,3.50
2023-01-01T01:16:19.499Z,3.30
2023-01-01T01:18:47.373Z,3.50
2023-01-01T01:21:20.457Z,3.20
2023-01-01T01:23:48.821Z,2.90
2023-01-01T01:26:23.642Z,2.80
2023-01-01T01:28:53.159Z,3.00
2023-01-01T01:31:23.928Z,2.80
2023-01-01T01:33:51.397Z,2.80
2023-01-01T01:36:19.618Z,2.70
2023-01-01T01:38:47.679Z,2.60
2023-01-01T01:41:27.298Z,2.70
2023-01-01T01:44:01.544Z,2.80
2023-01-01T01:46:45.556Z,2.60
2023-01-01T01:49:24.866Z,2.80
2023-01-01T01:51:52.033Z,2.90
2023-01-01T01:54:24.774Z,3.00
2023-01-01T01:57:07.754Z,2.90
2023-01-01T01:59:45.462Z,2.70
2023-01-01T02:02:32.979Z,2.70
2023-01-01T02:05:00.791Z,2.90
2023-01-01T02:07:31.085Z,2.60
2023-01-01T02:09:59.170Z,2.50
2023-01-01T02:12:29.624Z,2.90
2023-01-01T02:14:57.080Z,2.40
2023-01-01T02:18:03.108Z,2.80
2023-01-01T02:20:53.238Z,2.60
2023-01-01T02:24:12.213Z,2.70
2023-01-01T02:26:51.826Z,2.50
2023-01-01T02:30:07.288Z,2.70
2023-01-01T02:32:45.948Z,2.80
2023-01-01T02:35:34.777Z,2.50
2023-01-01T02:38:31.145Z,2.50
2023-01-01T02:41:04.003Z,2.60
2023-01-01T02:43:31.259Z,2.80
2023-01-01T02:45:58.646Z,2.40
2023-01-01T02:48:44.680Z,2.70
2023-01-01T02:51:14.856Z,2.80
2023-01-01T02:54:05.613Z,2.80
2023-01-01T02:57:07.089Z,2.70
2023-01-01T03:00:19.558Z,2.40
2023-01-01T03:03:47.468Z,2.60
2023-01-01T03:06:35.155Z,2.80
2023-01-01T03:09:24.200Z,2.40
2023-01-01T03:12:03.978Z,2.40
2023-01-01T03:14:48.200Z,2.50
2023-01-01T03:17:36.087Z,2.60
2023-01-01T03:20:11.609Z,2.20
2023-01-01T03:25:14.395Z,2.60
2023-01-01T03:28:15.077Z,2.20
2023-01-01T03:30:46.046Z,2.30
2023-01-01T03:33:33.156Z,2.30
2023-01-01T03:36:28.873Z,2.20
2023-01-01T03:39:04.231Z,2.20
2023-01-01T03:42:05.973Z,2.20
2023-01-01T03:44:47.704Z,2.20
2023-01-01T03:47:16.388Z,2.20
2023-01-01T03:49:44.759Z,2.10
2023-01-01T03:52:24.849Z,2.30
2023-01-01T03:55:24.130Z,2.20
2023-01-01T03:58:05.509Z,2.20
2023-01-01T04:00:46.889Z,2.20
2023-01-01T04:03:27.748Z,2.20
2023-01-01T04:05:55.532Z,2.00
2023-01-01T04:08:23.072Z,1.60
2023-01-01T04:10:59.417Z,2.10
2023-01-01T04:13:26.599Z,2.00
2023-01-01T04:15:53.780Z,2.00
2023-01-01T04:18:21.034Z,2.30
2023-01-01T04:20:48.109Z,2.20
2023-01-01T04:23:15.181Z,2.30
2023-01-01T04:25:42.306Z,2.10
2023-01-01T04:28:09.408Z,2.10
2023-01-01T04:33:03.950Z,2.10
2023-01-01T04:35:30.996Z,2.20
2023-01-01T04:37:59.192Z,2.10
2023-01-01T04:40:26.280Z,2.10
2023-01-01T04:42:54.566Z,2.10
2023-01-01T04:45:21.784Z,2.10
2023-01-01T04:47:49.015Z,2.10
2023-01-01T04:50:16.290Z,2.20
2023-01-01T04:52:43.482Z,2.00
2023-01-01T04:55:10.766Z,1.50
2023-01-01T04:57:38.016Z,1.80
2023-01-01T05:00:31.046Z,1.70
2023-01-01T05:02:58.314Z,2.20
2023-01-01T05:05:25.891Z,1.70
2023-01-01T05:07:52.987Z,1.70
2023-01-01T05:10:20.055Z,1.70
2023-01-01T05:12:47.225Z,2.00
2023-01-01T05:15:14.457Z,1.50
2023-01-01T05:17:41.658Z,0.30
2023-01-01T05:20:09.186Z,1.40
2023-01-01T05:22:36.409Z,1.20
2023-01-01T05:25:03.670Z,1.30
2023-01-01T05:27:30.768Z,1.60
2023-01-01T05:29:58.706Z,1.40
2023-01-01T05:32:25.797Z,1.30
2023-01-01T05:34:53.477Z,1.40
2023-01-01T05:37:20.636Z,1.40
2023-01-01T05:39:48.342Z,1.30
2023-01-01T05:42:15.783Z,1.20
2023-01-01T05:44:42.823Z,1.30
2023-01-01T05:47:09.990Z,1.30
2023-01-01T05:49:37.087Z,1.70
2023-01-01T05:52:04.591Z,1.60
2023-01-01T05:54:31.973Z,1.30
2023-01-01T05:56:59.107Z,1.30
2023-01-01T05:59:26.271Z,1.40
2023-01-01T06:01:53.512Z,1.20
2023-01-01T06:04:20.862Z,1.60
2023-01-01T06:06:48.029Z,1.30
2023-01-01T06:09:15.215Z,1.50
2023-01-01T06:11:42.364Z,1.20
2023-01-01T06:14:09.602Z,1.30
2023-01-01T06:16:36.943Z,1.30
2023-01-01T06:19:04.336Z,1.30
2023-01-01T06:21:31.618Z,1.10
2023-01-01T06:24:00.906Z,1.40
2023-01-01T06:26:32.446Z,1.30
2023-01-01T06:29:01.209Z,1.30
2023-01-01T06:31:31.943Z,1.70
2023-01-01T06:34:01.443Z,1.70
2023-01-01T06:36:28.551Z,1.50
2023-01-01T06:38:58.767Z,1.50
2023-01-01T06:41:28.461Z,1.50
2023-01-01T06:43:56.712Z,1.80
2023-01-01T06:46:32.254Z,1.50
2023-01-01T06:49:06.870Z,1.50
2023-01-01T06:51:42.091Z,1.60
2023-01-01T06:54:10.585Z,1.50
2023-01-01T06:56:39.267Z,1.30
2023-01-01T06:59:06.888Z,1.50
2023-01-01T07:01:44.586Z,1.60
2023-01-01T07:04:16.124Z,1.70
2023-01-01T07:06:43.724Z,1.90
2023-01-01T07:09:10.856Z,2.30
2023-01-01T07:11:38.015Z,2.10
2023-01-01T07:14:05.181Z,1.90
2023-01-01T07:16:32.367Z,2.10
2023-01-01T07:19:03.609Z,1.90
2023-01-01T07:21:47.330Z,2.10
2023-01-01T07:24:16.529Z,2.10
2023-01-01T07:26:44.590Z,1.90
2023-01-01T07:29:18.300Z,2.40
2023-01-01T07:31:45.916Z,2.30
2023-01-01T07:34:17.617Z,2.20
2023-01-01T07:36:44.884Z,2.20
2023-01-01T07:39:12.768Z,2.60
2023-01-01T07:41:39.837Z,2.50
2023-01-01T07:44:07.000Z,2.50
2023-01-01T07:46:38.015Z,2.50
2023-01-01T07:49:05.843Z,2.60
2023-01-01T07:51:33.009Z,2.60
2023-01-01T07:54:06.220Z,2.70
2023-01-01T07:56:36.070Z,2.70
2023-01-01T07:59:03.521Z,3.00
2023-01-01T08:01:30.667Z,3.10
2023-01-01T08:03:58.105Z,3.00
2023-01-01T08:06:25.189Z,2.90
2023-01-01T08:08:52.228Z,3.00
2023-01-01T08:11:19.400Z,3.00
2023-01-01T08:13:46.500Z,3.20
2023-01-01T08:16:13.825Z,3.20
2023-01-01T08:18:41.083Z,3.20
2023-01-01T08:21:08.297Z,3.20
2023-01-01T08:23:35.523Z,3.50
2023-01-01T08:26:03.799Z,3.40
2023-01-01T08:28:31.764Z,3.60
2023-01-01T08:31:00.359Z,3.60
2023-01-01T08:33:27.693Z,3.80
2023-01-01T08:35:55.071Z,3.70
2023-01-01T08:38:22.543Z,3.70
2023-01-01T08:40:49.757Z,4.00
2023-01-01T08:43:16.871Z,4.10
2023-01-01T08:45:45.691Z,3.80
2023-01-01T08:48:15.175Z,4.10
2023-01-01T08:50:42.401Z,3.70
2023-01-01T08:53:09.567Z,4.00
2023-01-01T08:55:36.739Z,4.00
2023-01-01T08:58:07.753Z,4.50
2023-01-01T09:00:35.149Z,4.70
2023-01-01T09:03:02.448Z,4.60
2023-01-01T09:05:29.727Z,5.00
2023-01-01T09:07:56.808Z,5.20
2023-01-01T09:10:23.991Z,5.10
2023-01-01T09:12:53.684Z,5.40
2023-01-01T09:15:20.922Z,5.70
2023-01-01T09:17:48.038Z,6.40
2023-01-01T09:20:15.355Z,7.30
2023-01-01T09:22:42.513Z,7.80
2023-01-01T09:25:11.539Z,7.80
2023-01-01T09:27:44.619Z,8.00
2023-01-01T09:30:15.259Z,8.60
2023-01-01T09:32:42.515Z,8.40
2023-01-01T09:35:13.205Z,8.80
2023-01-01T09:37:40.734Z,8.90
2023-01-01T09:40:11.856Z,8.90
2023-01-01T09:42:52.598Z,9.30
2023-01-01T09:45:29.105Z,9.50
2023-01-01T09:48:03.812Z,9.50
2023-01-01T09:50:41.501Z,9.60
2023-01-01T09:53:32.613Z,9.70
2023-01-01T09:56:05.608Z,10.20
2023-01-01T09:58:36.220Z,10.10
2023-01-01T10:01:47.731Z,10.00
2023-01-01T10:04:40.671Z,10.10
2023-01-01T10:07:38.219Z,10.30
2023-01-01T10:11:04.815Z,10.30
2023-01-01T10:13:46.168Z,10.10
2023-01-01T10:16:48.207Z,10.40
2023-01-01T10:19:52.160Z,10.40
2023-01-01T10:22:32.413Z,10.50
2023-01-01T10:25:06.316Z,10.30
2023-01-01T10:28:00.837Z,10.40
2023-01-01T10:30:30.847Z,10.30
2023-01-01T10:32:59.527Z,10.30
2023-01-01T10:35:36.168Z,10.30
2023-01-01T10:38:05.908Z,10.30
2023-01-01T10:40:34.121Z,10.40
2023-01-01T10:43:02.994Z,10.20
2023-01-01T10:45:42.256Z,10.50
2023-01-01T10:48:18.226Z,10.50
2023-01-01T10:51:07.590Z,10.60
2023-01-01T10:53:50.043Z,11.00
2023-01-01T10:56:24.348Z,10.80
2023-01-01T10:59:00.385Z,10.90
2023-01-01T11:01:33.106Z,11.20
2023-01-01T11:04:13.321Z,11.40
2023-01-01T11:06:49.701Z,11.40
2023-01-01T11:09:28.018Z,11.50
2023-01-01T11:12:11.806Z,11.70
2023-01-01T11:14:56.350Z,12.10
2023-01-01T11:17:24.967Z,12.10
2023-01-01T11:19:59.841Z,12.10
2023-01-01T11:22:50.483Z,12.40
2023-01-01T11:25:21.300Z,12.60
2023-01-01T11:27:50.631Z,12.60
2023-01-01T11:30:28.439Z,12.50
2023-01-01T11:33:03.143Z,12.50
2023-01-01T11:35:37.029Z,12.50
2023-01-01T11:38:04.941Z,12.70
2023-01-01T11:40:38.942Z,12.40
2023-01-01T11:43:07.511Z,12.80
2023-01-01T11:45:41.173Z,12.80
2023-01-01T11:48:33.065Z,12.90
2023-01-01T11:51:09.422Z,13.10
2023-01-01T11:53:42.648Z,13.10
2023-01-01T11:56:20.498Z,13.20
2023-01-01T11:59:12.959Z,13.50
2023-01-01T12:01:53.964Z,13.60
2023-01-01T12:05:01.319Z,13.80
2023-01-01T12:07:34.181Z,13.80
2023-01-01T12:10:17.757Z,13.90
2023-01-01T12:13:15.678Z,14.00
2023-01-01T12:16:40.707Z,14.10
2023-01-01T12:19:31.187Z,14.30
2023-01-01T12:22:01.135Z,14.30
2023-01-01T12:24:35.489Z,14.60
2023-01-01T12:27:17.493Z,14.20
2023-01-01T12:30:12.900Z,14.50
2023-01-01T12:33:08.222Z,14.90
2023-01-01T12:36:00.347Z,14.70
2023-01-01T12:38:54.397Z,14.80
2023-01-01T12:42:02.951Z,15.00
2023-01-01T12:44:58.497Z,14.70
2023-01-01T12:48:08.796Z,14.70
2023-01-01T12:51:04.979Z,14.70
2023-01-01T12:53:32.567Z,14.70
2023-01-01T12:56:28.685Z,14.70
2023-01-01T12:59:11.583Z,14.40
2023-01-01T13:01:40.993Z,14.40
2023-01-01T13:04:16.134Z,14.40
2023-01-01T13:07:05.886Z,14.30
2023-01-01T13:09:41.362Z,14.30
2023-01-01T13:12:17.514Z,14.50
2023-01-01T13:14:49.633Z,14.00
2023-01-01T13:17:29.890Z,13.80
2023-01-01T13:20:33.220Z,14.10
2023-01-01T13:23:00.405Z,13.90
2023-01-01T13:25:27.736Z,13.90
2023-01-01T13:27:58.087Z,13.90
2023-01-01T13:30:44.683Z,13.80
2023-01-01T13:33:27.551Z,13.80
2023-01-01T13:36:09.808Z,13.80
2023-01-01T13:39:10.971Z,13.80
2023-01-01T13:41:47.184Z,13.80
2023-01-01T13:44:23.897Z,13.80
2023-01-01T13:47:14.523Z,13.90
2023-01-01T13:50:05.984Z,14.10
2023-01-01T13:52:57.716Z,13.80
2023-01-01T13:56:00.903Z,14.00
2023-01-01T13:58:37.024Z,13.90
2023-01-01T14:01:29.695Z,13.90
2023-01-01T14:04:00.179Z,13.80
2023-01-01T14:06:39.119Z,13.80
2023-01-01T14:09:19.476Z,13.50
2023-01-01T14:11:46.684Z,13.50
2023-01-01T14:14:31.138Z,13.30
2023-01-01T14:17:07.238Z,13.10
2023-01-01T14:19:36.032Z,13.00
2023-01-01T14:22:09.093Z,13.00
2023-01-01T14:24:45.272Z,12.70
2023-01-01T14:27:22.748Z,12.50
2023-01-01T14:29:51.998Z,12.30
2023-01-01T14:32:25.709Z,12.30
2023-01-01T14:35:02.267Z,12.20
2023-01-01T14:37:29.537Z,11.90
2023-01-01T14:40:30.828Z,11.90
2023-01-01T14:43:12.331Z,11.90
2023-01-01T14:45:44.108Z,11.80
2023-01-01T14:48:19.910Z,11.60
2023-01-01T14:50:52.764Z,11.30
2023-01-01T14:53:31.120Z,11.50
2023-01-01T14:55:58.550Z,11.20
2023-01-01T14:58:30.235Z,10.90
2023-01-01T15:01:23.689Z,11.00
2023-01-01T15:04:23.363Z,11.10
2023-01-01T15:06:59.432Z,11.20
2023-01-01T15:09:29.037Z,10.90
2023-01-01T15:11:58.223Z,10.90
2023-01-01T15:14:42.630Z,10.60
2023-01-01T15:17:15.973Z,10.70
2023-01-01T15:19:46.857Z,10.70
2023-01-01T15:22:36.409Z,10.30
2023-01-01T15:25:04.476Z,10.60
2023-01-01T15:27:35.949Z,10.50
2023-01-01T15:30:13.299Z,10.50
2023-01-01T15:32:41.674Z,10.30
2023-01-01T15:35:33.799Z,10.20
2023-01-01T15:38:18.046Z,10.30
2023-01-01T15:40:51.048Z,10.00
2023-01-01T15:43:25.786Z,10.10
2023-01-01T15:46:26.156Z,9.80
2023-01-01T15:48:57.802Z,9.60
2023-01-01T15:51:28.686Z,9.60
2023-01-01T15:54:04.991Z,9.60
2023-01-01T15:56:40.263Z,9.80
2023-01-01T15:59:35.204Z,9.60
2023-01-01T16:02:25.397Z,9.50
2023-01-01T16:04:52.994Z,9.50
2023-01-01T16:07:24.477Z,9.50
2023-01-01T16:09:57.792Z,9.40
2023-01-01T16:12:26.339Z,9.10
2023-01-01T16:14:53.646Z,9.30
2023-01-01T16:17:21.326Z,9.40
2023-01-01T16:19:49.347Z,9.00
2023-01-01T16:22:18.453Z,8.90
2023-01-01T16:24:45.943Z,9.00
2023-01-01T16:27:13.376Z,8.70
2023-01-01T16:29:43.880Z,8.80
2023-01-01T16:32:18.576Z,9.00
2023-01-01T16:34:45.903Z,8.70
2023-01-01T16:37:13.415Z,8.70
2023-01-01T16:39:40.680Z,8.60
2023-01-01T16:42:15.792Z,8.50
2023-01-01T16:44:43.400Z,8.60
2023-01-01T16:47:11.060Z,8.50
2023-01-01T16:49:38.165Z,8.40
2023-01-01T16:52:05.664Z,8.40
2023-01-01T16:54:32.930Z,8.20
2023-01-01T16:57:00.127Z,8.20
2023-01-01T16:59:27.351Z,8.00
2023-01-01T17:01:54.455Z,8.00
2023-01-01T17:04:21.812Z,8.00
2023-01-01T17:06:49.047Z,7.90
2023-01-01T17:09:17.223Z,7.90
2023-01-01T17:11:46.125Z,7.80
2023-01-01T17:14:13.276Z,7.90
2023-01-01T17:16:40.679Z,7.70
2023-01-01T17:19:14.885Z,7.70
2023-01-01T17:21:42.620Z,7.70
2023-01-01T17:24:11.191Z,7.70
2023-01-01T17:26:38.946Z,7.80
2023-01-01T17:29:07.779Z,7.50
2023-01-01T17:31:35.645Z,7.60
2023-01-01T17:34:02.983Z,7.40
2023-01-01T17:36:30.560Z,7.40
2023-01-01T17:38:57.940Z,7.60
2023-01-01T17:41:27.632Z,7.50
2023-01-01T17:43:55.903Z,7.50
2023-01-01T17:46:33.160Z,7.10
2023-01-01T17:49:05.165Z,7.30
2023-01-01T17:51:32.364Z,7.20
2023-01-01T17:54:00.621Z,7.20
2023-01-01T17:56:27.776Z,7.20
2023-01-01T17:58:55.339Z,7.20
2023-01-01T18:01:22.595Z,7.20
2023-01-01T18:04:00.895Z,7.10
2023-01-01T18:06:31.116Z,7.10
2023-01-01T18:09:01.960Z,6.80
2023-01-01T18:11:31.369Z,7.30
2023-01-01T18:14:01.191Z,7.10
2023-01-01T18:16:31.207Z,6.90
2023-01-01T18:19:01.218Z,6.70
2023-01-01T18:21:31.686Z,6.60
2023-01-01T18:23:59.898Z,6.70
2023-01-01T18:26:30.896Z,6.70
2023-01-01T18:29:04.859Z,6.30
2023-01-01T18:31:35.634Z,6.60
2023-01-01T18:34:09.659Z,6.50
2023-01-01T18:36:37.037Z,6.40
2023-01-01T18:39:12.935Z,6.30
2023-01-01T18:42:02.449Z,6.20
2023-01-01T18:44:31.770Z,6.00
2023-01-01T18:47:05.293Z,5.90
2023-01-01T18:49:37.915Z,6.20
2023-01-01T18:52:08.072Z,5.60
2023-01-01T18:54:35.860Z,5.70
2023-01-01T18:57:29.326Z,5.70
2023-01-01T19:00:16.489Z,5.70
2023-01-01T19:02:52.496Z,5.80
2023-01-01T19:05:29.798Z,5.80
2023-01-01T19:08:08.903Z,5.90
2023-01-01T19:10:47.868Z,5.90
2023-01-01T19:13:37.220Z,5.90
2023-01-01T19:16:24.304Z,5.80
2023-01-01T19:18:53.291Z,5.90
2023-01-01T19:21:24.186Z,5.90
2023-01-01T19:23:54.034Z,6.10
2023-01-01T19:26:34.702Z,5.90
2023-01-01T19:29:24.844Z,6.20
2023-01-01T19:31:58.029Z,5.90
2023-01-01T19:34:25.817Z,5.90
2023-01-01T19:36:53.439Z,6.00
2023-01-01T19:39:20.769Z,5.90
2023-01-01T19:41:48.010Z,6.00
2023-01-01T19:44:19.843Z,6.00
2023-01-01T19:46:50.257Z,6.00
2023-01-01T19:49:18.581Z,6.10
2023-01-01T19:51:45.752Z,5.80
2023-01-01T19:54:12.958Z,6.20
2023-01-01T19:56:48.769Z,6.00
2023-01-01T19:59:15.973Z,5.90
2023-01-01T20:01:43.376Z,6.00
2023-01-01T20:04:12.038Z,5.60
2023-01-01T20:06:39.232Z,5.60
2023-01-01T20:09:06.455Z,5.90
2023-01-01T20:11:34.459Z,6.00
2023-01-01T20:14:01.947Z,5.80
2023-01-01T20:16:29.240Z,5.70
2023-01-01T20:18:57.989Z,5.90
2023-01-01T20:21:44.102Z,5.30
2023-01-01T20:24:11.190Z,5.30
2023-01-01T20:26:38.289Z,5.20
2023-01-01T20:29:20.404Z,5.20
2023-01-01T20:31:49.779Z,5.00
2023-01-01T20:34:18.270Z,5.00
2023-01-01T20:37:04.435Z,5.00
2023-01-01T20:39:31.716Z,5.20
2023-01-01T20:41:59.112Z,5.00
2023-01-01T20:44:30.447Z,5.20
2023-01-01T20:46:57.759Z,5.20
2023-01-01T20:49:24.887Z,5.20
2023-01-01T20:51:53.562Z,4.90
2023-01-01T20:54:22.360Z,5.00
2023-01-01T20:56:50.213Z,5.00
2023-01-01T20:59:34.861Z,5.30
2023-01-01T21:02:04.439Z,5.00
2023-01-01T21:04:32.020Z,5.00
2023-01-01T21:06:59.135Z,5.10
2023-01-01T21:09:26.295Z,5.10
2023-01-01T21:11:53.605Z,4.90
2023-01-01T21:14:24.701Z,4.80
2023-01-01T21:16:54.530Z,4.70
2023-01-01T21:19:26.641Z,4.30
2023-01-01T21:21:57.591Z,4.40
2023-01-01T21:24:34.880Z,4.30
2023-01-01T21:27:08.109Z,4.50
2023-01-01T21:29:36.311Z,4.20
2023-01-01T21:32:59.338Z,4.00
2023-01-01T21:35:35.655Z,4.40
2023-01-01T21:38:16.545Z,4.20
2023-01-01T21:40:55.781Z,4.20
2023-01-01T21:43:45.561Z,4.00
2023-01-01T21:46:24.667Z,4.00
2023-01-01T21:48:57.037Z,4.10
2023-01-01T21:51:41.276Z,3.70
2023-01-01T21:54:12.100Z,3.70
2023-01-01T21:56:54.740Z,4.10
2023-01-01T21:59:43.933Z,3.90
2023-01-01T22:02:11.030Z,3.80
2023-01-01T22:04:49.955Z,4.10
2023-01-01T22:10:36.224Z,4.40
2023-01-01T22:13:12.120Z,4.40
2023-01-01T22:15:42.099Z,4.30
2023-01-01T22:18:11.874Z,4.30
2023-01-01T22:20:44.529Z,4.30
2023-01-01T22:23:24.685Z,4.30
2023-01-01T22:25:53.276Z,4.40
2023-01-01T22:28:27.884Z,4.30
2023-01-01T22:31:00.854Z,4.20
2023-01-01T22:33:39.272Z,4.50
2023-01-01T22:36:26.323Z,4.60
2023-01-01T22:39:09.203Z,4.50
2023-01-01T22:41:36.253Z,4.60
2023-01-01T22:44:04.814Z,4.60
2023-01-01T22:46:40.534Z,4.70
2023-01-01T22:49:34.413Z,4.50
2023-01-01T22:52:03.479Z,4.40
2023-01-01T22:54:30.577Z,4.20
2023-01-01T22:56:57.673Z,4.40
2023-01-01T22:59:24.906Z,4.40
2023-01-01T23:01:52.033Z,4.10
2023-01-01T23:04:19.209Z,4.20
2023-01-01T23:06:46.650Z,4.20
2023-01-01T23:09:14.016Z,4.10
2023-01-01T23:11:41.270Z,4.00
2023-01-01T23:14:26.700Z,3.70
2023-01-01T23:16:53.799Z,3.90
2023-01-01T23:19:20.926Z,4.10
2023-01-01T23:21:51.105Z,3.70
2023-01-01T23:24:20.838Z,3.70
2023-01-01T23:26:49.760Z,3.60
2023-01-01T23:29:20.299Z,3.60
2023-01-01T23:31:49.004Z,3.50
2023-01-01T23:34:16.854Z,3.50
2023-01-01T23:36:44.861Z,3.40
2023-01-01T23:39:11.948Z,3.50
2023-01-01T23:41:39.138Z,3.00
2023-01-01T23:44:06.197Z,3.40
2023-01-01T23:46:35.661Z,3.50
2023-01-01T23:49:05.285Z,3.50
2023-01-01T23:51:33.681Z,3.40
2023-01-01T23:54:00.935Z,3.30
2023-01-01T23:56:28.168Z,3.20
2023-01-01T23:58:55.676Z,3.00
